Time;durP1;ratioP1;P1;durP2;ratioP2;P2;SDS_P1;SDS_P2;PMS_P1;PMS_P2;Temp;Humidity;BMP_temperature;BMP_pressure;BME280_temperature;BME280_humidity;BME280_pressure;Samples;Min_cycle;Max_cycle;Signal;HPM_P1;HPM_P2
2023/07/05 00:01:29;;;;;;;9.23;3.08;;;;;;;17.87;65.54;101035.81;7392657;19;20079;-59
2023/07/05 00:03:57;;;;;;;10.00;3.70;;;;;;;17.87;65.90;101025.94;7389498;19;20018;-59
2023/07/05 00:06:24;;;;;;;11.38;3.80;;;;;;;17.84;65.73;101015.53;7388233;19;20018;-59
2023/07/05 00:08:52;;;;;;;9.02;3.53;;;;;;;17.83;65.66;101008.47;7391403;19;20029;-59
2023/07/05 00:11:20;;;;;;;9.70;3.50;;;;;;;17.87;65.77;100995.63;7391284;19;20038;-59
2023/07/05 00:13:47;;;;;;;13.02;4.10;;;;;;;17.88;65.65;100991.94;7390127;19;20288;-58
2023/07/05 00:16:15;;;;;;;10.30;3.47;;;;;;;17.80;65.88;100991.88;7389593;19;20074;-58
2023/07/05 00:18:42;;;;;;;9.50;3.65;;;;;;;17.82;65.74;100990.72;7391278;19;20022;-59
2023/07/05 00:21:10;;;;;;;8.65;3.35;;;;;;;17.71;66.44;100969.50;7391270;19;20479;-59
2023/07/05 00:23:39;;;;;;;11.75;3.83;;;;;;;17.73;66.61;100972.84;7389895;19;20011;-59
2023/07/05 00:26:07;;;;;;;10.85;3.85;;;;;;;17.73;66.84;100959.47;7389202;19;20095;-59
2023/07/05 00:28:34;;;;;;;11.32;3.83;;;;;;;17.71;66.94;100959.63;7391277;19;20015;-59
2023/07/05 00:31:03;;;;;;;12.07;4.25;;;;;;;17.72;66.95;100955.94;7391366;19;20018;-59
2023/07/05 00:33:33;;;;;;;11.02;3.83;;;;;;;17.66;67.45;100953.03;7389769;19;20014;-59
2023/07/05 00:36:01;;;;;;;10.07;3.72;;;;;;;17.59;68.00;100947.47;7386928;19;20028;-59
2023/07/05 00:38:28;;;;;;;10.93;4.07;;;;;;;17.53;67.94;100935.53;7390630;19;20023;-60
2023/07/05 00:40:55;;;;;;;11.30;3.97;;;;;;;17.58;67.64;100939.56;7390722;19;20126;-60
2023/07/05 00:43:22;;;;;;;13.07;4.47;;;;;;;17.59;67.78;100934.09;7393215;19;20030;-59
2023/07/05 00:46:07;;;;;;;12.70;4.63;;;;;;;17.61;67.96;100909.81;7387921;19;20471;-60
2023/07/05 00:48:41;;;;;;;11.68;4.68;;;;;;;17.51;68.08;100904.53;7390842;19;20049;-59
2023/07/05 00:51:21;;;;;;;10.88;3.88;;;;;;;17.50;68.32;100911.72;7388519;19;20047;-59
2023/07/05 00:53:50;;;;;;;9.60;4.25;;;;;;;17.46;68.44;100907.69;7390251;19;20025;-59
2023/07/05 00:56:22;;;;;;;11.15;4.72;;;;;;;17.51;68.26;100899.19;7385957;19;20022;-60
2023/07/05 00:58:51;;;;;;;9.88;3.97;;;;;;;17.50;68.44;100892.16;7390077;19;20015;-61
2023/07/05 01:01:19;;;;;;;11.32;4.10;;;;;;;17.44;68.42;100892.78;7389622;19;20479;-60
2023/07/05 01:03:51;;;;;;;9.68;4.07;;;;;;;17.44;68.23;100882.06;7390164;19;20014;-60
2023/07/05 01:06:22;;;;;;;10.85;4.22;;;;;;;17.40;68.28;100876.19;7388251;19;20475;-60
2023/07/05 01:08:50;;;;;;;10.88;4.20;;;;;;;17.44;67.63;100869.53;7390393;19;20025;-59
2023/07/05 01:11:30;;;;;;;11.00;4.78;;;;;;;17.48;68.23;100857.50;7389719;19;20022;-59
2023/07/05 01:14:02;;;;;;;11.70;4.28;;;;;;;17.44;68.08;100850.78;7389930;19;20018;-59
2023/07/05 01:17:02;;;;;;;9.75;4.00;;;;;;;17.45;68.21;100840.91;7387329;19;20022;-59
2023/07/05 01:19:51;;;;;;;11.95;3.85;;;;;;;17.44;68.14;100829.38;7389456;19;20391;-59
2023/07/05 01:22:31;;;;;;;10.48;3.92;;;;;;;17.43;68.19;100832.19;7387718;19;20019;-59
2023/07/05 01:25:15;;;;;;;8.07;3.78;;;;;;;17.43;67.93;100824.16;7387512;19;20026;-59
2023/07/05 01:28:06;;;;;;;9.27;3.97;;;;;;;17.48;67.51;100816.50;7390234;19;20034;-60
2023/07/05 01:30:55;;;;;;;9.65;3.70;;;;;;;17.45;67.66;100809.63;7387511;19;20021;-60
2023/07/05 01:33:52;;;;;;;10.80;3.80;;;;;;;17.53;67.26;100814.19;7389541;19;20078;-59
2023/07/05 01:36:21;;;;;;;10.60;4.32;;;;;;;17.47;67.52;100812.13;7393073;19;20026;-59
2023/07/05 01:38:48;;;;;;;12.65;3.83;;;;;;;17.53;67.08;100800.78;7396495;19;20015;-58
2023/07/05 01:41:15;;;;;;;10.68;4.00;;;;;;;17.58;66.59;100805.69;7396230;19;20015;-60
2023/07/05 01:43:45;;;;;;;12.68;4.13;;;;;;;17.58;66.59;100789.59;7400124;19;20328;-60
2023/07/05 01:46:23;;;;;;;10.13;3.72;;;;;;;17.56;66.62;100786.25;7392194;19;20090;-60
2023/07/05 01:49:06;;;;;;;10.20;4.20;;;;;;;17.63;65.91;100768.53;7396594;19;20018;-60
2023/07/05 01:51:39;;;;;;;12.25;3.90;;;;;;;17.62;65.93;100762.34;7394684;19;20483;-60
2023/07/05 01:54:10;;;;;;;;;;;;;;;17.53;65.81;100766.00;7396443;19;20039;-60
2023/07/05 01:56:44;;;;;;;9.73;3.50;;;;;;;17.52;65.93;100754.44;7394795;19;19919;-60
2023/07/05 01:59:13;;;;;;;11.65;3.83;;;;;;;17.57;65.80;100745.91;7394447;19;20015;-63
2023/07/05 02:01:42;;;;;;;9.10;3.75;;;;;;;17.61;65.56;100741.09;7395461;19;20019;-61
2023/07/05 02:04:13;;;;;;;10.57;4.05;;;;;;;17.68;65.05;100737.63;7395584;19;20333;-61
2023/07/05 02:06:43;;;;;;;10.70;3.70;;;;;;;17.69;65.24;100722.38;7393484;19;20037;-60
2023/07/05 02:09:10;;;;;;;8.88;3.42;;;;;;;17.68;65.00;100712.69;7395742;19;20017;-60
2023/07/05 02:11:37;;;;;;;8.27;3.40;;;;;;;17.67;64.77;100709.16;7396253;19;20014;-59
2023/07/05 02:14:05;;;;;;;10.07;3.78;;;;;;;17.70;64.70;100708.81;7395037;19;20552;-62
2023/07/05 02:16:32;;;;;;;8.93;3.40;;;;;;;17.71;64.75;100710.53;7392470;19;20021;-60
2023/07/05 02:19:00;;;;;;;13.80;3.78;;;;;;;17.71;64.66;100715.88;7395609;19;20042;-60
2023/07/05 02:21:28;;;;;;;9.68;3.95;;;;;;;17.72;65.41;100700.63;7394710;19;20046;-60
2023/07/05 02:23:55;;;;;;;9.60;3.90;;;;;;;17.66;65.87;100698.59;7394894;19;20066;-58
2023/07/05 02:26:23;;;;;;;10.13;4.25;;;;;;;17.57;67.16;100691.53;7392684;19;20491;-58
2023/07/05 02:28:50;;;;;;;9.43;3.90;;;;;;;17.50;68.45;100688.66;7394578;19;20055;-59
2023/07/05 02:31:17;;;;;;;10.15;4.05;;;;;;;17.39;68.83;100678.22;7394721;19;20010;-58
2023/07/05 02:33:44;;;;;;;12.05;4.35;;;;;;;17.29;69.39;100681.84;7394627;19;20029;-58
2023/07/05 02:36:14;;;;;;;10.13;4.38;;;;;;;17.29;70.09;100686.38;7391154;19;20014;-59
2023/07/05 02:38:42;;;;;;;10.90;4.78;;;;;;;17.25;70.58;100660.91;7393891;19;20026;-58
2023/07/05 02:41:09;;;;;;;11.65;4.68;;;;;;;17.22;71.04;100667.41;7394328;19;20047;-59
2023/07/05 02:43:36;;;;;;;11.52;4.50;;;;;;;17.16;71.38;100657.34;7397424;19;20022;-59
2023/07/05 02:46:05;;;;;;;10.07;4.88;;;;;;;17.06;72.12;100651.28;7390500;19;20488;-59
2023/07/05 02:48:32;;;;;;;9.82;4.22;;;;;;;17.07;72.05;100652.94;7394174;19;20018;-59
2023/07/05 02:51:00;;;;;;;12.13;4.40;;;;;;;17.07;72.28;100660.13;7393929;19;20018;-59
2023/07/05 02:53:27;;;;;;;11.18;4.38;;;;;;;17.04;72.79;100661.28;7394109;19;20081;-59
2023/07/05 02:55:55;;;;;;;13.23;4.35;;;;;;;17.03;72.94;100660.44;7391222;19;20039;-59
2023/07/05 02:58:23;;;;;;;11.38;5.00;;;;;;;16.94;72.91;100645.34;7393669;19;20011;-59
2023/07/05 03:00:50;;;;;;;11.95;4.80;;;;;;;16.93;73.09;100637.47;7394368;19;20332;-59
2023/07/05 03:03:17;;;;;;;11.32;5.03;;;;;;;16.94;72.95;100637.31;7393910;19;20018;-59
2023/07/05 03:05:57;;;;;;;11.68;4.63;;;;;;;16.99;73.00;100634.16;7391360;19;20021;-59
2023/07/05 03:08:28;;;;;;;12.07;4.82;;;;;;;16.90;73.04;100637.78;7394079;19;20029;-59
2023/07/05 03:10:59;;;;;;;9.32;4.70;;;;;;;16.86;73.59;100634.56;7393759;19;20022;-60
2023/07/05 03:13:28;;;;;;;11.65;4.15;;;;;;;16.89;73.28;100626.22;7393278;19;20021;-60
2023/07/05 03:15:57;;;;;;;8.98;4.50;;;;;;;16.83;73.45;100608.16;7390707;19;20495;-60
2023/07/05 03:18:26;;;;;;;9.55;4.43;;;;;;;16.79;73.45;100591.59;7393327;19;20010;-59
2023/07/05 03:20:53;;;;;;;9.93;4.65;;;;;;;16.78;73.61;100589.03;7393616;19;20031;-60
2023/07/05 03:23:21;;;;;;;10.60;4.32;;;;;;;16.83;73.43;100583.22;7393160;19;20024;-59
2023/07/05 03:25:58;;;;;;;11.35;4.90;;;;;;;16.84;73.57;100582.25;7390539;19;20029;-60
2023/07/05 03:28:29;;;;;;;10.70;5.13;;;;;;;16.75;74.07;100566.16;7392624;19;20018;-62
2023/07/05 03:30:59;;;;;;;12.25;5.20;;;;;;;16.76;74.29;100565.16;7392902;19;20015;-61
2023/07/05 03:33:27;;;;;;;10.55;5.28;;;;;;;16.78;74.25;100562.31;7392277;19;20018;-62
2023/07/05 03:35:59;;;;;;;9.05;4.78;;;;;;;16.79;74.14;100569.34;7390332;19;20094;-62
2023/07/05 03:38:29;;;;;;;11.18;5.20;;;;;;;16.76;74.56;100565.16;7392438;19;20026;-61
2023/07/05 03:41:02;;;;;;;10.48;5.20;;;;;;;16.74;74.83;100560.94;7392483;19;20029;-60
2023/07/05 03:43:32;;;;;;;11.07;5.40;;;;;;;16.77;74.84;100566.81;7395201;19;20102;-60
2023/07/05 03:46:00;;;;;;;11.43;5.35;;;;;;;16.79;74.77;100559.50;7390819;19;20094;-61
2023/07/05 03:48:36;;;;;;;9.95;4.88;;;;;;;16.84;74.46;100550.97;7390357;19;20022;-61
2023/07/05 03:51:06;;;;;;;9.88;5.22;;;;;;;16.82;74.95;100547.63;7392609;19;20138;-62
2023/07/05 03:53:33;;;;;;;12.68;5.00;;;;;;;16.79;74.85;100545.28;7391711;19;20102;-59
2023/07/05 03:56:04;;;;;;;15.32;5.35;;;;;;;16.78;75.12;100552.44;7389866;19;20483;-59
2023/07/05 03:58:31;;;;;;;10.55;5.00;;;;;;;16.78;75.03;100539.06;7390237;19;20021;-58
2023/07/05 04:01:12;;;;;;;11.73;5.72;;;;;;;16.77;74.94;100524.03;7391975;19;20506;-59
2023/07/05 04:03:40;;;;;;;10.63;5.30;;;;;;;16.75;75.15;100527.84;7391387;19;20019;-59
2023/07/05 04:06:07;;;;;;;10.60;5.53;;;;;;;16.74;75.27;100510.13;7389169;19;20018;-58
2023/07/05 04:08:35;;;;;;;10.45;5.40;;;;;;;16.72;75.11;100506.75;7391811;19;20058;-58
2023/07/05 04:11:02;;;;;;;11.40;5.72;;;;;;;16.70;75.40;100496.22;7391530;19;20014;-58
2023/07/05 04:13:29;;;;;;;13.07;5.55;;;;;;;16.70;75.47;100490.03;7391375;19;20010;-60
2023/07/05 04:16:01;;;;;;;12.07;5.38;;;;;;;16.73;75.26;100473.66;7389384;19;20042;-60
2023/07/05 04:18:30;;;;;;;10.30;5.55;;;;;;;16.69;75.45;100459.78;7391307;19;20022;-59
2023/07/05 04:20:58;;;;;;;11.25;5.70;;;;;;;16.70;75.39;100455.25;7391162;19;20046;-59
2023/07/05 04:23:26;;;;;;;11.13;6.05;;;;;;;16.73;75.50;100454.94;7391261;19;20026;-58
2023/07/05 04:26:01;;;;;;;10.73;5.57;;;;;;;16.75;75.48;100456.50;7389669;19;20018;-58
2023/07/05 04:28:30;;;;;;;12.27;5.47;;;;;;;16.71;75.56;100451.59;7390684;19;20023;-58
2023/07/05 04:30:57;;;;;;;11.45;5.30;;;;;;;16.72;75.71;100447.94;7390676;19;20025;-58
2023/07/05 04:33:25;;;;;;;12.23;5.90;;;;;;;16.65;75.40;100454.91;7391024;19;20018;-59
2023/07/05 04:35:55;;;;;;;11.65;5.60;;;;;;;16.66;75.54;100464.59;7387500;19;20035;-58
2023/07/05 04:38:23;;;;;;;11.57;5.65;;;;;;;16.71;75.22;100454.25;7389276;19;20472;-58
2023/07/05 04:40:50;;;;;;;10.95;5.65;;;;;;;16.67;75.72;100439.53;7390423;19;20425;-58
2023/07/05 04:43:17;;;;;;;11.50;6.15;;;;;;;16.73;75.36;100436.22;7392710;19;20018;-58
2023/07/05 04:45:49;;;;;;;11.57;6.20;;;;;;;16.74;75.38;100421.88;7388303;19;20022;-58
2023/07/05 04:48:17;;;;;;;11.70;6.50;;;;;;;16.73;75.29;100426.41;7387079;19;20063;-58
2023/07/05 04:50:47;;;;;;;11.70;6.30;;;;;;;16.69;75.81;100414.31;7390363;19;20019;-58
2023/07/05 04:53:14;;;;;;;14.75;5.93;;;;;;;16.73;75.80;100420.19;7390023;19;20014;-58
2023/07/05 04:55:53;;;;;;;13.38;5.93;;;;;;;16.74;75.93;100420.03;7388275;19;20018;-59
2023/07/05 04:58:22;;;;;;;12.55;6.43;;;;;;;16.68;76.61;100417.16;7390151;19;20025;-59
2023/07/05 05:00:50;;;;;;;12.23;6.35;;;;;;;16.70;76.49;100407.13;7390709;19;20029;-59
2023/07/05 05:03:20;;;;;;;11.57;6.45;;;;;;;16.71;77.05;100406.13;7390074;19;20050;-58
2023/07/05 05:05:52;;;;;;;10.38;6.30;;;;;;;16.77;76.55;100405.53;7387916;19;20022;-58
2023/07/05 05:08:20;;;;;;;13.90;7.07;;;;;;;16.76;76.79;100410.03;7389304;19;20482;-58
2023/07/05 05:10:52;;;;;;;14.50;7.55;;;;;;;16.75;76.67;100411.03;7397455;19;20027;-59
2023/07/05 05:13:22;;;;;;;12.82;6.47;;;;;;;16.72;76.74;100410.50;7397426;19;20038;-58
2023/07/05 05:15:50;;;;;;;12.18;6.53;;;;;;;16.65;77.35;100409.47;7394358;19;20577;-59
2023/07/05 05:18:18;;;;;;;11.18;5.97;;;;;;;16.68;77.46;100409.16;7397552;19;20031;-58
2023/07/05 05:20:45;;;;;;;12.52;6.40;;;;;;;16.79;76.72;100407.03;7397048;19;20032;-59
2023/07/05 05:23:13;;;;;;;13.80;6.57;;;;;;;16.86;76.99;100411.72;7396985;19;20019;-59
2023/07/05 05:25:42;;;;;;;13.05;6.50;;;;;;;16.89;76.95;100420.28;7394421;19;20035;-59
2023/07/05 05:28:10;;;;;;;14.25;6.95;;;;;;;16.98;76.87;100413.97;7394836;19;20039;-59
2023/07/05 05:30:38;;;;;;;12.45;6.78;;;;;;;17.01;77.05;100410.09;7397625;19;20089;-58
2023/07/05 05:33:10;;;;;;;11.85;6.93;;;;;;;17.00;77.52;100405.75;7396471;19;20014;-59
2023/07/05 05:35:37;;;;;;;13.13;6.57;;;;;;;17.05;77.12;100408.78;7394102;19;20025;-58
2023/07/05 05:38:04;;;;;;;12.05;6.90;;;;;;;17.05;77.21;100408.78;7397222;19;20010;-59
2023/07/05 05:40:35;;;;;;;14.68;7.00;;;;;;;17.08;77.23;100399.59;7396243;19;20074;-59
2023/07/05 05:43:02;;;;;;;13.85;7.10;;;;;;;17.03;77.55;100400.91;7398329;19;20026;-60
2023/07/05 05:45:29;;;;;;;11.98;6.35;;;;;;;17.02;77.76;100414.47;7393810;19;20492;-60
2023/07/05 05:47:56;;;;;;;11.55;6.45;;;;;;;16.98;77.74;100411.28;7394485;19;20504;-61
2023/07/05 05:50:24;;;;;;;10.73;6.38;;;;;;;16.97;77.97;100416.78;7394302;19;20078;-59
2023/07/05 05:52:51;;;;;;;13.27;7.00;;;;;;;16.99;77.75;100409.44;7396193;19;20340;-61
2023/07/05 05:55:19;;;;;;;12.93;6.70;;;;;;;16.97;78.14;100414.94;7393702;19;20014;-59
2023/07/05 05:57:47;;;;;;;11.20;6.57;;;;;;;16.93;78.13;100418.09;7395949;19;20073;-60
2023/07/05 06:00:14;;;;;;;12.45;6.72;;;;;;;16.91;78.23;100417.44;7393897;19;20023;-60
2023/07/05 06:02:41;;;;;;;11.50;6.50;;;;;;;16.91;78.69;100404.91;7396292;19;20019;-60
2023/07/05 06:05:10;;;;;;;11.95;6.95;;;;;;;16.93;78.35;100410.09;7391626;19;20369;-60
2023/07/05 06:07:38;;;;;;;11.10;6.85;;;;;;;16.92;78.47;100408.41;7394299;19;20094;-62
2023/07/05 06:10:06;;;;;;;12.15;6.45;;;;;;;16.87;78.46;100416.09;7395382;19;20021;-62
2023/07/05 06:12:35;;;;;;;12.70;6.78;;;;;;;16.85;78.63;100412.75;7395589;19;20337;-62
2023/07/05 06:15:03;;;;;;;13.10;6.95;;;;;;;16.89;78.82;100408.72;7391793;19;20034;-61
2023/07/05 06:17:30;;;;;;;11.63;6.53;;;;;;;16.90;78.77;100402.38;7395548;19;20014;-61
2023/07/05 06:19:58;;;;;;;12.88;7.07;;;;;;;16.98;78.68;100397.91;7393938;19;20082;-61
2023/07/05 06:22:26;;;;;;;10.43;6.45;;;;;;;17.05;78.40;100398.06;7395381;19;20022;-61
2023/07/05 06:24:53;;;;;;;13.55;6.82;;;;;;;16.96;78.76;100394.53;7393212;19;20025;-61
2023/07/05 06:27:20;;;;;;;11.65;5.82;;;;;;;17.06;78.53;100394.41;7394297;19;20007;-60
2023/07/05 06:29:47;;;;;;;10.38;6.38;;;;;;;17.15;78.15;100400.63;7394965;19;20022;-60
2023/07/05 06:32:14;;;;;;;10.63;5.82;;;;;;;17.19;78.43;100394.75;7394712;19;20018;-61
2023/07/05 06:34:42;;;;;;;10.20;6.07;;;;;;;17.16;78.52;100394.25;7393753;19;20025;-60
2023/07/05 06:37:09;;;;;;;10.90;6.15;;;;;;;17.19;78.56;100391.25;7394264;19;20019;-61
2023/07/05 06:39:37;;;;;;;11.52;6.60;;;;;;;17.25;78.46;100387.94;7394732;19;20023;-60
2023/07/05 06:42:04;;;;;;;10.70;6.30;;;;;;;17.22;78.78;100389.09;7394177;19;20019;-60
2023/07/05 06:44:32;;;;;;;10.32;5.82;;;;;;;17.24;78.81;100392.41;7396654;19;20019;-60
2023/07/05 06:46:59;;;;;;;9.90;6.20;;;;;;;17.36;78.62;100408.16;7393880;19;20026;-60
2023/07/05 06:49:26;;;;;;;11.57;6.38;;;;;;;17.36;78.57;100405.47;7394237;19;20038;-60
2023/07/05 06:51:54;;;;;;;9.90;6.50;;;;;;;17.30;79.17;100401.63;7394694;19;20054;-60
2023/07/05 06:54:21;;;;;;;11.57;5.65;;;;;;;17.32;79.28;100406.81;7394224;19;20535;-60
2023/07/05 06:56:48;;;;;;;11.63;6.25;;;;;;;17.38;79.02;100406.16;7393071;19;20018;-61
2023/07/05 06:59:16;;;;;;;10.23;5.82;;;;;;;17.61;78.46;100428.59;7393936;19;20025;-61
2023/07/05 07:01:43;;;;;;;9.75;4.82;;;;;;;17.63;77.91;100413.22;7394300;19;20018;-61
2023/07/05 07:04:10;;;;;;;8.35;4.97;;;;;;;17.68;76.33;100420.75;7393131;19;20502;-60
2023/07/05 07:06:37;;;;;;;8.40;4.28;;;;;;;17.79;75.29;100417.75;7393319;19;20033;-62
2023/07/05 07:09:05;;;;;;;7.47;3.92;;;;;;;17.84;74.23;100430.66;7391258;19;20014;-61
2023/07/05 07:11:32;;;;;;;9.85;3.72;;;;;;;17.81;73.73;100420.25;7393647;19;20022;-60
2023/07/05 07:13:59;;;;;;;8.25;4.03;;;;;;;17.75;73.18;100421.78;7393486;19;20210;-61
2023/07/05 07:16:27;;;;;;;4.85;2.63;;;;;;;17.54;70.65;100420.38;7392788;19;20191;-61
2023/07/05 07:18:55;;;;;;;5.97;2.83;;;;;;;17.39;69.76;100422.06;7393014;19;20085;-61
2023/07/05 07:21:23;;;;;;;4.30;2.40;;;;;;;17.32;68.51;100420.19;7391618;19;20028;-62
2023/07/05 07:23:51;;;;;;;6.65;2.50;;;;;;;17.28;67.67;100420.56;7393099;19;20086;-60
2023/07/05 07:26:21;;;;;;;7.22;2.55;;;;;;;17.31;67.32;100414.00;7390205;19;20029;-59
2023/07/05 07:28:52;;;;;;;4.78;2.20;;;;;;;17.38;67.79;100422.22;7391264;19;20017;-60
2023/07/05 07:31:25;;;;;;;6.65;2.60;;;;;;;17.39;66.99;100423.88;7391435;19;20035;-61
2023/07/05 07:33:53;;;;;;;5.35;2.67;;;;;;;17.35;67.45;100427.91;7392215;19;20344;-59
2023/07/05 07:36:26;;;;;;;4.85;2.30;;;;;;;17.36;66.54;100417.06;7391727;19;20030;-54
2023/07/05 07:38:54;;;;;;;4.68;2.40;;;;;;;17.42;65.80;100423.56;7393019;19;20049;-62
2023/07/05 07:41:27;;;;;;;7.15;2.50;;;;;;;17.47;65.36;100424.72;7392505;19;20096;-62
2023/07/05 07:43:58;;;;;;;11.65;2.65;;;;;;;17.56;65.73;100428.28;7394121;19;20028;-62
2023/07/05 07:46:27;;;;;;;5.40;2.58;;;;;;;17.70;65.63;100424.91;7390356;19;20026;-63
2023/07/05 07:48:56;;;;;;;6.40;2.47;;;;;;;17.65;65.51;100431.78;7391132;19;20042;-63
2023/07/05 07:51:27;;;;;;;7.53;2.60;;;;;;;17.71;64.27;100434.63;7392180;19;20035;-59
2023/07/05 07:54:02;;;;;;;4.55;2.42;;;;;;;17.66;64.59;100436.13;7392626;19;20061;-62
2023/07/05 07:56:30;;;;;;;6.45;2.42;;;;;;;17.64;64.04;100435.47;7390028;19;20028;-61
2023/07/05 07:59:00;;;;;;;6.05;2.42;;;;;;;17.60;64.50;100426.94;7392531;19;20015;-61
2023/07/05 08:01:33;;;;;;;4.68;2.35;;;;;;;17.73;64.31;100435.28;7390836;19;20026;-59
2023/07/05 08:04:03;;;;;;;4.38;2.20;;;;;;;17.73;64.66;100429.94;7391604;19;20506;-59
2023/07/05 08:06:33;;;;;;;6.15;2.47;;;;;;;17.89;63.98;100431.78;7391613;19;20082;-61
2023/07/05 08:09:00;;;;;;;6.45;2.33;;;;;;;17.92;63.63;100444.88;7390575;19;20053;-60
2023/07/05 08:11:29;;;;;;;5.55;2.78;;;;;;;17.90;63.65;100424.63;7390949;19;20022;-61
2023/07/05 08:13:56;;;;;;;4.45;2.50;;;;;;;18.09;61.89;100442.19;7389773;19;20014;-60
2023/07/05 08:16:24;;;;;;;6.47;3.10;;;;;;;18.23;60.78;100442.31;7388940;19;20315;-61
2023/07/05 08:18:51;;;;;;;6.53;2.72;;;;;;;18.50;60.38;100440.22;7391359;19;20019;-59
2023/07/05 08:21:19;;;;;;;9.73;2.80;;;;;;;18.38;59.98;100436.25;7389886;19;20025;-59
2023/07/05 08:23:46;;;;;;;6.50;2.63;;;;;;;18.17;60.46;100456.41;7389316;19;20017;-61
2023/07/05 08:26:13;;;;;;;6.57;2.83;;;;;;;18.01;60.75;100464.47;7388121;19;20032;-61
2023/07/05 08:28:41;;;;;;;5.13;2.75;;;;;;;18.19;59.56;100466.94;7389661;19;20022;-60
2023/07/05 08:31:09;;;;;;;6.45;2.63;;;;;;;18.38;58.83;100455.03;7392293;19;20031;-61
2023/07/05 08:33:37;;;;;;;8.38;2.65;;;;;;;18.23;58.70;100457.56;7390509;19;20040;-60
2023/07/05 08:36:16;;;;;;;4.63;2.33;;;;;;;18.15;57.56;100466.44;7388333;19;20014;-61
2023/07/05 08:38:51;;;;;;;6.78;2.80;;;;;;;18.23;57.53;100465.59;7390393;19;20022;-60
2023/07/05 08:41:37;;;;;;;7.93;2.72;;;;;;;18.54;55.91;100471.06;7389091;19;20105;-61
2023/07/05 08:44:38;;;;;;;5.30;2.78;;;;;;;18.56;55.21;100457.50;7392616;19;20491;-62
2023/07/05 08:47:08;;;;;;;4.78;2.70;;;;;;;18.37;57.00;100453.34;7390437;19;20082;-60
2023/07/05 08:49:45;;;;;;;8.43;2.65;;;;;;;18.57;55.96;100449.25;7387749;19;20031;-61
2023/07/05 08:52:23;;;;;;;5.65;2.88;;;;;;;18.83;55.99;100456.25;7390247;19;20495;-60
2023/07/05 08:55:04;;;;;;;6.80;2.95;;;;;;;18.71;56.38;100443.22;7388725;19;20015;-61
2023/07/05 08:57:44;;;;;;;5.43;2.53;;;;;;;18.77;56.71;100448.88;7390244;19;20375;-61
2023/07/05 09:00:19;;;;;;;7.32;2.67;;;;;;;18.72;55.46;100450.25;7391101;19;20432;-62
2023/07/05 09:02:47;;;;;;;7.28;2.78;;;;;;;18.78;55.63;100440.69;7390131;19;20491;-62
2023/07/05 09:05:16;;;;;;;5.68;2.53;;;;;;;18.75;55.84;100431.13;7387772;19;20086;-62
2023/07/05 09:07:56;;;;;;;9.88;2.53;;;;;;;18.82;54.71;100427.75;7389116;19;20041;-62
2023/07/05 09:10:37;;;;;;;7.38;2.22;;;;;;;18.89;54.14;100434.09;7389353;19;20070;-59
2023/07/05 09:13:12;;;;;;;6.07;2.38;;;;;;;18.92;53.25;100447.97;7390494;19;20095;-61
2023/07/05 09:15:47;;;;;;;5.97;2.03;;;;;;;19.02;51.63;100444.25;7387890;19;20077;-61
2023/07/05 09:18:27;;;;;;;8.65;2.30;;;;;;;19.17;52.08;100461.28;7389263;19;20014;-61
2023/07/05 09:21:27;;;;;;;7.18;2.13;;;;;;;19.17;50.16;100455.94;7389570;19;20031;-61
2023/07/05 09:24:04;;;;;;;6.15;1.95;;;;;;;19.01;50.41;100464.91;7389253;19;20031;-61
2023/07/05 09:26:37;;;;;;;9.80;2.40;;;;;;;19.02;50.68;100447.78;7387992;19;20076;-61
2023/07/05 09:29:15;;;;;;;7.47;2.10;;;;;;;19.10;50.41;100446.91;7386733;19;20019;-61
2023/07/05 09:31:43;;;;;;;7.75;1.98;;;;;;;19.28;50.66;100466.28;7388739;19;20019;-60
2023/07/05 09:34:17;;;;;;;6.95;2.17;;;;;;;19.48;49.71;100474.69;7388546;19;20035;-60
2023/07/05 09:36:46;;;;;;;4.53;1.92;;;;;;;19.36;49.73;100460.00;7388143;19;20019;-61
2023/07/05 09:39:30;;;;;;;4.88;1.63;;;;;;;19.39;49.45;100491.88;7389517;19;20073;-61
2023/07/05 09:42:03;;;;;;;5.18;1.70;;;;;;;19.33;49.52;100466.56;7388816;19;20019;-60
2023/07/05 09:44:31;;;;;;;3.20;1.77;;;;;;;19.46;50.44;100469.50;7392579;19;20263;-60
2023/07/05 09:46:59;;;;;;;6.35;2.00;;;;;;;19.44;50.67;100479.59;7387512;19;20026;-60
2023/07/05 09:49:27;;;;;;;4.72;2.13;;;;;;;19.28;50.50;100477.00;7386772;19;20081;-60
2023/07/05 09:51:59;;;;;;;7.07;2.45;;;;;;;19.11;51.16;100483.47;7388743;19;20031;-61
2023/07/05 09:54:29;;;;;;;6.13;2.33;;;;;;;18.90;51.77;100481.38;7388043;19;20019;-61
2023/07/05 09:57:04;;;;;;;6.95;2.10;;;;;;;19.00;51.87;100500.78;7394706;19;20014;-61
2023/07/05 09:59:34;;;;;;;7.25;2.50;;;;;;;19.12;51.86;100487.84;7396578;19;20503;-60
2023/07/05 10:02:16;;;;;;;5.47;1.80;;;;;;;19.34;52.01;100499.63;7393483;19;20495;-61
2023/07/05 10:04:45;;;;;;;6.10;2.15;;;;;;;19.44;51.60;100487.66;7394608;19;20015;-60
2023/07/05 10:07:18;;;;;;;5.85;1.90;;;;;;;19.51;50.53;100505.75;7393526;19;20018;-61
2023/07/05 10:09:59;;;;;;;5.75;1.92;;;;;;;19.21;51.05;100484.91;7392367;19;20495;-61
2023/07/05 10:12:35;;;;;;;7.35;1.80;;;;;;;19.39;50.84;100483.84;7395133;19;20332;-61
2023/07/05 10:15:16;;;;;;;7.03;1.90;;;;;;;19.20;50.90;100488.63;7393749;19;20047;-61
2023/07/05 10:17:46;;;;;;;5.70;1.88;;;;;;;19.21;51.35;100465.28;7394737;19;20015;-60
2023/07/05 10:20:37;;;;;;;9.25;1.90;;;;;;;19.66;50.13;100463.69;7395474;19;20040;-60
2023/07/05 10:23:18;;;;;;;7.38;2.00;;;;;;;19.34;50.62;100475.44;7394989;19;20019;-61
2023/07/05 10:25:46;;;;;;;3.50;1.60;;;;;;;19.40;50.15;100472.06;7392900;19;20017;-60
2023/07/05 10:28:21;;;;;;;3.60;1.70;;;;;;;19.62;50.92;100459.69;7393740;19;20037;-59
2023/07/05 10:30:56;;;;;;;8.35;1.90;;;;;;;19.76;50.22;100460.75;7394936;19;20011;-60
2023/07/05 10:33:25;;;;;;;4.40;1.50;;;;;;;19.67;50.58;100470.75;7394772;19;20011;-59
2023/07/05 10:35:58;;;;;;;6.72;1.38;;;;;;;19.52;50.87;100454.53;7391916;19;20022;-59
2023/07/05 10:38:28;;;;;;;5.13;1.70;;;;;;;19.11;51.44;100459.31;7394223;19;20022;-59
2023/07/05 10:41:17;;;;;;;5.85;1.85;;;;;;;18.80;52.27;100470.84;7394449;19;20088;-60
2023/07/05 10:43:57;;;;;;;6.10;1.70;;;;;;;18.61;53.01;100479.25;7396993;19;20348;-60
2023/07/05 10:46:26;;;;;;;4.18;1.80;;;;;;;18.31;54.20;100486.19;7394406;19;20018;-59
2023/07/05 10:48:55;;;;;;;6.15;1.58;;;;;;;18.18;54.29;100476.00;7391542;19;20014;-61
2023/07/05 10:51:31;;;;;;;8.02;1.60;;;;;;;18.16;53.57;100491.41;7393963;19;20025;-59
2023/07/05 10:54:23;;;;;;;6.95;1.63;;;;;;;18.19;53.56;100499.13;7393962;19;20014;-60
2023/07/05 10:56:50;;;;;;;6.35;1.77;;;;;;;18.16;53.68;100507.50;7393701;19;20443;-60
2023/07/05 10:59:33;;;;;;;8.02;2.10;;;;;;;17.98;53.18;100494.28;7394195;19;20023;-60
2023/07/05 11:02:16;;;;;;;5.53;1.45;;;;;;;17.91;53.27;100520.91;7394494;19;20015;-60
2023/07/05 11:04:47;;;;;;;7.57;1.95;;;;;;;17.95;53.74;100483.91;7393030;19;20043;-60
2023/07/05 11:07:18;;;;;;;5.72;1.80;;;;;;;18.01;53.53;100502.00;7392878;19;20026;-60
2023/07/05 11:09:46;;;;;;;4.88;1.80;;;;;;;17.98;53.50;100486.25;7390835;19;20051;-60
2023/07/05 11:12:20;;;;;;;5.43;1.70;;;;;;;17.93;53.11;100485.88;7393044;19;20035;-60
2023/07/05 11:14:49;;;;;;;8.00;1.83;;;;;;;17.89;53.91;100492.59;7391715;19;20018;-60
2023/07/05 11:17:34;;;;;;;8.00;1.95;;;;;;;17.76;53.69;100485.88;7393297;19;20018;-60
2023/07/05 11:20:02;;;;;;;7.22;1.67;;;;;;;17.81;54.73;100512.16;7393634;19;20027;-60
2023/07/05 11:22:37;;;;;;;5.43;1.70;;;;;;;17.56;55.62;100526.50;7392372;19;20019;-60
2023/07/05 11:25:09;;;;;;;4.78;1.63;;;;;;;17.62;56.51;100532.03;7391653;19;20019;-60
2023/07/05 11:27:37;;;;;;;7.57;1.98;;;;;;;17.70;56.63;100513.28;7392794;19;20078;-60
2023/07/05 11:30:25;;;;;;;8.52;2.03;;;;;;;17.93;56.21;100518.91;7391449;19;20036;-60
2023/07/05 11:33:15;;;;;;;7.13;1.75;;;;;;;18.08;55.51;100529.75;7390627;19;20381;-60
2023/07/05 11:35:55;;;;;;;4.90;1.95;;;;;;;18.12;56.53;100528.44;7390413;19;20018;-59
2023/07/05 11:38:40;;;;;;;6.25;1.88;;;;;;;18.07;57.04;100528.09;7392208;19;20054;-60
2023/07/05 11:41:27;;;;;;;5.47;1.70;;;;;;;17.97;57.87;100522.06;7392458;19;20026;-59